sensor_id;sensor_type;location;lat;lon;timestamp;P1;durP1;ratioP1;P2;durP2;ratioP2
19384;SDS011;9828;54.122;17.974;2023-05-10T00:02:50;10.33;;;5.50;;
19384;SDS011;9828;54.122;17.974;2023-05-10T00:08:11;8.87;;;5.17;;
19384;SDS011;9828;54.122;17.974;2023-05-10T00:13:33;8.50;;;5.33;;
19384;SDS011;9828;54.122;17.974;2023-05-10T00:18:54;10.73;;;5.47;;
19384;SDS011;9828;54.122;17.974;2023-05-10T00:24:15;7.13;;;5.37;;
19384;SDS011;9828;54.122;17.974;2023-05-10T00:29:36;9.17;;;5.47;;
19384;SDS011;9828;54.122;17.974;2023-05-10T00:34:57;12.37;;;5.50;;
19384;SDS011;9828;54.122;17.974;2023-05-10T00:40:19;10.43;;;5.23;;
19384;SDS011;9828;54.122;17.974;2023-05-10T00:45:46;8.53;;;5.27;;
19384;SDS011;9828;54.122;17.974;2023-05-10T00:51:07;9.13;;;5.33;;
19384;SDS011;9828;54.122;17.974;2023-05-10T00:56:29;8.03;;;5.10;;
19384;SDS011;9828;54.122;17.974;2023-05-10T01:01:51;7.07;;;5.23;;
19384;SDS011;9828;54.122;17.974;2023-05-10T01:07:13;10.53;;;5.40;;
19384;SDS011;9828;54.122;17.974;2023-05-10T01:12:35;8.40;;;4.70;;
19384;SDS011;9828;54.122;17.974;2023-05-10T01:18:00;15.23;;;5.37;;
19384;SDS011;9828;54.122;17.974;2023-05-10T01:23:28;7.27;;;4.93;;
19384;SDS011;9828;54.122;17.974;2023-05-10T01:34:47;10.87;;;4.93;;
19384;SDS011;9828;54.122;17.974;2023-05-10T01:45:47;7.73;;;4.60;;
19384;SDS011;9828;54.122;17.974;2023-05-10T01:51:21;7.70;;;4.83;;
19384;SDS011;9828;54.122;17.974;2023-05-10T01:56:47;10.17;;;5.63;;
19384;SDS011;9828;54.122;17.974;2023-05-10T02:02:13;11.60;;;5.30;;
19384;SDS011;9828;54.122;17.974;2023-05-10T02:07:37;14.03;;;5.27;;
19384;SDS011;9828;54.122;17.974;2023-05-10T02:12:59;9.80;;;5.40;;
19384;SDS011;9828;54.122;17.974;2023-05-10T02:18:23;10.27;;;5.17;;
19384;SDS011;9828;54.122;17.974;2023-05-10T02:23:45;8.40;;;5.00;;
19384;SDS011;9828;54.122;17.974;2023-05-10T02:33:44;11.77;;;5.10;;
19384;SDS011;9828;54.122;17.974;2023-05-10T02:39:10;9.20;;;5.27;;
19384;SDS011;9828;54.122;17.974;2023-05-10T02:44:33;10.33;;;4.90;;
19384;SDS011;9828;54.122;17.974;2023-05-10T02:49:57;9.30;;;4.87;;
19384;SDS011;9828;54.122;17.974;2023-05-10T02:55:19;6.73;;;4.77;;
19384;SDS011;9828;54.122;17.974;2023-05-10T03:00:43;6.50;;;4.70;;
19384;SDS011;9828;54.122;17.974;2023-05-10T03:06:04;8.73;;;5.40;;
19384;SDS011;9828;54.122;17.974;2023-05-10T03:23:10;8.33;;;5.03;;
19384;SDS011;9828;54.122;17.974;2023-05-10T03:28:47;8.73;;;5.00;;
19384;SDS011;9828;54.122;17.974;2023-05-10T03:34:09;9.27;;;5.30;;
19384;SDS011;9828;54.122;17.974;2023-05-10T03:39:31;17.87;;;6.60;;
19384;SDS011;9828;54.122;17.974;2023-05-10T03:44:54;6.77;;;4.80;;
19384;SDS011;9828;54.122;17.974;2023-05-10T03:50:15;12.10;;;5.53;;
19384;SDS011;9828;54.122;17.974;2023-05-10T03:55:37;14.00;;;6.33;;
19384;SDS011;9828;54.122;17.974;2023-05-10T04:00:58;15.43;;;7.70;;
19384;SDS011;9828;54.122;17.974;2023-05-10T04:06:20;20.40;;;8.00;;
19384;SDS011;9828;54.122;17.974;2023-05-10T04:11:41;14.00;;;7.30;;
19384;SDS011;9828;54.122;17.974;2023-05-10T04:17:02;11.43;;;5.73;;
19384;SDS011;9828;54.122;17.974;2023-05-10T04:22:23;7.07;;;5.47;;
19384;SDS011;9828;54.122;17.974;2023-05-10T04:27:44;6.83;;;5.40;;
19384;SDS011;9828;54.122;17.974;2023-05-10T04:33:05;6.87;;;4.60;;
19384;SDS011;9828;54.122;17.974;2023-05-10T04:38:26;9.40;;;5.53;;
19384;SDS011;9828;54.122;17.974;2023-05-10T04:43:49;7.67;;;4.50;;
19384;SDS011;9828;54.122;17.974;2023-05-10T04:49:10;11.90;;;5.37;;
19384;SDS011;9828;54.122;17.974;2023-05-10T04:54:31;10.27;;;5.50;;
19384;SDS011;9828;54.122;17.974;2023-05-10T04:59:52;8.20;;;5.27;;
19384;SDS011;9828;54.122;17.974;2023-05-10T05:05:13;7.73;;;4.33;;
19384;SDS011;9828;54.122;17.974;2023-05-10T05:10:34;7.90;;;4.70;;
19384;SDS011;9828;54.122;17.974;2023-05-10T05:15:56;10.70;;;5.47;;
19384;SDS011;9828;54.122;17.974;2023-05-10T05:21:17;9.10;;;5.10;;
19384;SDS011;9828;54.122;17.974;2023-05-10T05:26:39;11.13;;;5.90;;
19384;SDS011;9828;54.122;17.974;2023-05-10T05:32:00;11.47;;;5.63;;
19384;SDS011;9828;54.122;17.974;2023-05-10T05:37:21;7.73;;;4.83;;
19384;SDS011;9828;54.122;17.974;2023-05-10T05:42:43;6.80;;;3.90;;
19384;SDS011;9828;54.122;17.974;2023-05-10T05:48:04;5.93;;;4.20;;
19384;SDS011;9828;54.122;17.974;2023-05-10T05:53:25;6.67;;;4.83;;
19384;SDS011;9828;54.122;17.974;2023-05-10T05:58:46;5.73;;;4.13;;
19384;SDS011;9828;54.122;17.974;2023-05-10T06:04:08;8.10;;;3.87;;
19384;SDS011;9828;54.122;17.974;2023-05-10T06:09:29;7.87;;;4.33;;
19384;SDS011;9828;54.122;17.974;2023-05-10T06:14:50;13.60;;;4.20;;
19384;SDS011;9828;54.122;17.974;2023-05-10T06:20:11;7.03;;;4.25;;
19384;SDS011;9828;54.122;17.974;2023-05-10T06:25:33;7.25;;;3.90;;
19384;SDS011;9828;54.122;17.974;2023-05-10T06:30:54;6.50;;;3.38;;
19384;SDS011;9828;54.122;17.974;2023-05-10T06:36:15;6.30;;;3.38;;
19384;SDS011;9828;54.122;17.974;2023-05-10T06:41:36;7.82;;;2.97;;
19384;SDS011;9828;54.122;17.974;2023-05-10T06:46:57;6.07;;;3.08;;
19384;SDS011;9828;54.122;17.974;2023-05-10T06:52:19;7.45;;;3.70;;
19384;SDS011;9828;54.122;17.974;2023-05-10T06:57:40;7.68;;;3.13;;
19384;SDS011;9828;54.122;17.974;2023-05-10T07:03:00;8.73;;;3.42;;
19384;SDS011;9828;54.122;17.974;2023-05-10T07:08:22;4.28;;;2.90;;
19384;SDS011;9828;54.122;17.974;2023-05-10T07:13:43;8.55;;;2.72;;
19384;SDS011;9828;54.122;17.974;2023-05-10T07:19:06;6.72;;;3.03;;
19384;SDS011;9828;54.122;17.974;2023-05-10T07:24:28;7.78;;;2.60;;
19384;SDS011;9828;54.122;17.974;2023-05-10T07:29:49;12.20;;;2.75;;
19384;SDS011;9828;54.122;17.974;2023-05-10T07:35:10;12.30;;;3.38;;
19384;SDS011;9828;54.122;17.974;2023-05-10T07:40:31;6.65;;;2.38;;
19384;SDS011;9828;54.122;17.974;2023-05-10T07:45:53;44.88;;;4.40;;
19384;SDS011;9828;54.122;17.974;2023-05-10T07:51:16;25.52;;;8.77;;
19384;SDS011;9828;54.122;17.974;2023-05-10T07:56:37;12.30;;;2.45;;
19384;SDS011;9828;54.122;17.974;2023-05-10T08:02:00;10.00;;;2.65;;
19384;SDS011;9828;54.122;17.974;2023-05-10T08:07:21;8.50;;;2.47;;
19384;SDS011;9828;54.122;17.974;2023-05-10T08:12:43;9.73;;;3.40;;
19384;SDS011;9828;54.122;17.974;2023-05-10T08:18:04;10.10;;;2.17;;
19384;SDS011;9828;54.122;17.974;2023-05-10T08:23:25;3.05;;;2.05;;
19384;SDS011;9828;54.122;17.974;2023-05-10T08:28:47;4.78;;;2.05;;
19384;SDS011;9828;54.122;17.974;2023-05-10T08:34:08;11.30;;;2.38;;
19384;SDS011;9828;54.122;17.974;2023-05-10T08:39:29;7.82;;;2.97;;
19384;SDS011;9828;54.122;17.974;2023-05-10T08:44:50;8.07;;;2.38;;
19384;SDS011;9828;54.122;17.974;2023-05-10T08:50:13;7.55;;;2.47;;
19384;SDS011;9828;54.122;17.974;2023-05-10T08:55:35;4.47;;;2.10;;
19384;SDS011;9828;54.122;17.974;2023-05-10T09:00:59;10.10;;;2.35;;
19384;SDS011;9828;54.122;17.974;2023-05-10T09:06:21;16.27;;;2.65;;
19384;SDS011;9828;54.122;17.974;2023-05-10T09:11:43;6.20;;;2.03;;
19384;SDS011;9828;54.122;17.974;2023-05-10T09:17:05;11.57;;;2.40;;
19384;SDS011;9828;54.122;17.974;2023-05-10T09:22:26;10.75;;;2.30;;
19384;SDS011;9828;54.122;17.974;2023-05-10T09:27:48;4.28;;;1.90;;
19384;SDS011;9828;54.122;17.974;2023-05-10T09:33:10;12.23;;;2.47;;
19384;SDS011;9828;54.122;17.974;2023-05-10T09:38:35;8.95;;;2.15;;
19384;SDS011;9828;54.122;17.974;2023-05-10T09:44:09;16.48;;;2.65;;
19384;SDS011;9828;54.122;17.974;2023-05-10T09:49:30;7.95;;;2.25;;
19384;SDS011;9828;54.122;17.974;2023-05-10T09:54:54;12.75;;;2.78;;
19384;SDS011;9828;54.122;17.974;2023-05-10T10:00:18;6.80;;;2.05;;
19384;SDS011;9828;54.122;17.974;2023-05-10T10:05:42;3.90;;;2.08;;
19384;SDS011;9828;54.122;17.974;2023-05-10T10:11:04;5.50;;;2.28;;
19384;SDS011;9828;54.122;17.974;2023-05-10T10:16:26;4.70;;;2.63;;
19384;SDS011;9828;54.122;17.974;2023-05-10T10:21:51;6.32;;;2.42;;
19384;SDS011;9828;54.122;17.974;2023-05-10T10:55:16;6.80;;;2.38;;
19384;SDS011;9828;54.122;17.974;2023-05-10T11:00:39;9.55;;;2.20;;
19384;SDS011;9828;54.122;17.974;2023-05-10T11:06:01;5.72;;;2.30;;
19384;SDS011;9828;54.122;17.974;2023-05-10T11:11:22;8.95;;;2.00;;
19384;SDS011;9828;54.122;17.974;2023-05-10T11:16:44;4.32;;;2.30;;
19384;SDS011;9828;54.122;17.974;2023-05-10T11:27:26;5.97;;;2.20;;
19384;SDS011;9828;54.122;17.974;2023-05-10T11:32:47;8.73;;;2.00;;
19384;SDS011;9828;54.122;17.974;2023-05-10T11:38:09;6.30;;;2.10;;
19384;SDS011;9828;54.122;17.974;2023-05-10T11:43:32;6.80;;;2.53;;
19384;SDS011;9828;54.122;17.974;2023-05-10T11:48:55;9.80;;;2.80;;
19384;SDS011;9828;54.122;17.974;2023-05-10T11:54:20;8.57;;;2.03;;
19384;SDS011;9828;54.122;17.974;2023-05-10T11:59:42;6.80;;;2.20;;
19384;SDS011;9828;54.122;17.974;2023-05-10T12:05:04;3.42;;;1.98;;
19384;SDS011;9828;54.122;17.974;2023-05-10T12:10:26;3.47;;;1.73;;
19384;SDS011;9828;54.122;17.974;2023-05-10T12:15:48;7.13;;;1.70;;
19384;SDS011;9828;54.122;17.974;2023-05-10T12:21:10;9.10;;;2.15;;
19384;SDS011;9828;54.122;17.974;2023-05-10T12:26:32;7.45;;;2.03;;
19384;SDS011;9828;54.122;17.974;2023-05-10T12:31:58;7.50;;;2.20;;
19384;SDS011;9828;54.122;17.974;2023-05-10T12:37:23;7.78;;;1.77;;
19384;SDS011;9828;54.122;17.974;2023-05-10T12:42:48;10.35;;;2.08;;
19384;SDS011;9828;54.122;17.974;2023-05-10T12:48:09;10.95;;;2.30;;
19384;SDS011;9828;54.122;17.974;2023-05-10T12:53:30;3.97;;;2.10;;
19384;SDS011;9828;54.122;17.974;2023-05-10T12:58:52;5.78;;;2.28;;
19384;SDS011;9828;54.122;17.974;2023-05-10T13:04:13;8.95;;;1.83;;
19384;SDS011;9828;54.122;17.974;2023-05-10T13:09:34;8.07;;;2.05;;
19384;SDS011;9828;54.122;17.974;2023-05-10T13:14:55;8.95;;;2.47;;
19384;SDS011;9828;54.122;17.974;2023-05-10T13:20:17;2.85;;;1.88;;
19384;SDS011;9828;54.122;17.974;2023-05-10T13:25:38;6.13;;;2.85;;
19384;SDS011;9828;54.122;17.974;2023-05-10T13:30:59;8.27;;;2.65;;
19384;SDS011;9828;54.122;17.974;2023-05-10T13:36:21;5.72;;;2.55;;
19384;SDS011;9828;54.122;17.974;2023-05-10T13:41:43;24.25;;;11.02;;
19384;SDS011;9828;54.122;17.974;2023-05-10T13:47:04;9.75;;;3.78;;
19384;SDS011;9828;54.122;17.974;2023-05-10T13:52:26;10.10;;;4.97;;
19384;SDS011;9828;54.122;17.974;2023-05-10T13:57:47;4.43;;;2.40;;
19384;SDS011;9828;54.122;17.974;2023-05-10T14:03:09;5.05;;;2.30;;
19384;SDS011;9828;54.122;17.974;2023-05-10T14:08:31;10.60;;;2.38;;
19384;SDS011;9828;54.122;17.974;2023-05-10T14:13:52;15.90;;;2.58;;
19384;SDS011;9828;54.122;17.974;2023-05-10T14:19:13;11.32;;;2.45;;
19384;SDS011;9828;54.122;17.974;2023-05-10T14:24:34;2.72;;;1.70;;
19384;SDS011;9828;54.122;17.974;2023-05-10T14:29:55;8.65;;;2.45;;
19384;SDS011;9828;54.122;17.974;2023-05-10T14:35:16;7.38;;;2.35;;
19384;SDS011;9828;54.122;17.974;2023-05-10T14:40:39;11.63;;;2.40;;
19384;SDS011;9828;54.122;17.974;2023-05-10T14:45:59;13.93;;;8.75;;
19384;SDS011;9828;54.122;17.974;2023-05-10T14:51:20;14.43;;;2.67;;
19384;SDS011;9828;54.122;17.974;2023-05-10T14:56:42;20.05;;;2.58;;
19384;SDS011;9828;54.122;17.974;2023-05-10T15:02:03;5.07;;;2.00;;
19384;SDS011;9828;54.122;17.974;2023-05-10T15:07:24;7.28;;;2.00;;
19384;SDS011;9828;54.122;17.974;2023-05-10T15:12:46;9.13;;;2.00;;
19384;SDS011;9828;54.122;17.974;2023-05-10T15:18:08;6.38;;;2.28;;
19384;SDS011;9828;54.122;17.974;2023-05-10T15:23:29;3.95;;;2.13;;
19384;SDS011;9828;54.122;17.974;2023-05-10T15:28:50;13.43;;;2.63;;
19384;SDS011;9828;54.122;17.974;2023-05-10T15:34:13;7.88;;;2.63;;
19384;SDS011;9828;54.122;17.974;2023-05-10T15:39:34;12.77;;;2.40;;
19384;SDS011;9828;54.122;17.974;2023-05-10T15:44:55;3.92;;;1.98;;
19384;SDS011;9828;54.122;17.974;2023-05-10T15:50:16;4.93;;;2.28;;
19384;SDS011;9828;54.122;17.974;2023-05-10T15:55:37;8.32;;;2.45;;
19384;SDS011;9828;54.122;17.974;2023-05-10T16:00:58;5.60;;;2.35;;
19384;SDS011;9828;54.122;17.974;2023-05-10T16:06:20;7.05;;;2.40;;
19384;SDS011;9828;54.122;17.974;2023-05-10T16:11:43;4.85;;;2.17;;
19384;SDS011;9828;54.122;17.974;2023-05-10T16:17:05;7.55;;;3.72;;
19384;SDS011;9828;54.122;17.974;2023-05-10T16:22:27;6.10;;;2.45;;
19384;SDS011;9828;54.122;17.974;2023-05-10T16:27:49;6.38;;;2.80;;
19384;SDS011;9828;54.122;17.974;2023-05-10T16:33:10;4.20;;;2.08;;
19384;SDS011;9828;54.122;17.974;2023-05-10T16:38:31;5.63;;;2.60;;
19384;SDS011;9828;54.122;17.974;2023-05-10T16:43:52;3.08;;;2.03;;
19384;SDS011;9828;54.122;17.974;2023-05-10T16:49:14;11.65;;;2.90;;
19384;SDS011;9828;54.122;17.974;2023-05-10T16:54:35;3.97;;;2.45;;
19384;SDS011;9828;54.122;17.974;2023-05-10T16:59:56;4.70;;;2.03;;
19384;SDS011;9828;54.122;17.974;2023-05-10T17:05:17;9.05;;;3.60;;
19384;SDS011;9828;54.122;17.974;2023-05-10T17:10:39;8.18;;;3.00;;
19384;SDS011;9828;54.122;17.974;2023-05-10T17:16:01;3.53;;;2.35;;
19384;SDS011;9828;54.122;17.974;2023-05-10T17:21:25;6.55;;;2.45;;
19384;SDS011;9828;54.122;17.974;2023-05-10T17:26:47;7.07;;;2.80;;
19384;SDS011;9828;54.122;17.974;2023-05-10T17:32:08;3.72;;;2.47;;
19384;SDS011;9828;54.122;17.974;2023-05-10T17:37:29;4.35;;;3.03;;
19384;SDS011;9828;54.122;17.974;2023-05-10T17:42:52;3.63;;;2.55;;
19384;SDS011;9828;54.122;17.974;2023-05-10T17:48:13;8.25;;;3.17;;
19384;SDS011;9828;54.122;17.974;2023-05-10T17:53:35;4.97;;;2.15;;
19384;SDS011;9828;54.122;17.974;2023-05-10T17:58:55;4.47;;;2.40;;
19384;SDS011;9828;54.122;17.974;2023-05-10T18:04:17;7.75;;;2.60;;
19384;SDS011;9828;54.122;17.974;2023-05-10T18:09:39;6.68;;;2.75;;
19384;SDS011;9828;54.122;17.974;2023-05-10T18:15:01;6.32;;;2.30;;
19384;SDS011;9828;54.122;17.974;2023-05-10T18:20:22;3.38;;;2.10;;
19384;SDS011;9828;54.122;17.974;2023-05-10T18:25:43;6.43;;;3.40;;
19384;SDS011;9828;54.122;17.974;2023-05-10T18:31:04;5.28;;;2.83;;
19384;SDS011;9828;54.122;17.974;2023-05-10T18:36:26;11.70;;;3.90;;
19384;SDS011;9828;54.122;17.974;2023-05-10T18:41:48;8.80;;;4.22;;
19384;SDS011;9828;54.122;17.974;2023-05-10T18:47:10;10.25;;;3.70;;
19384;SDS011;9828;54.122;17.974;2023-05-10T18:52:32;9.95;;;4.15;;
19384;SDS011;9828;54.122;17.974;2023-05-10T18:57:54;9.82;;;4.15;;
19384;SDS011;9828;54.122;17.974;2023-05-10T19:03:15;8.85;;;4.47;;
19384;SDS011;9828;54.122;17.974;2023-05-10T19:08:37;16.08;;;4.47;;
19384;SDS011;9828;54.122;17.974;2023-05-10T19:13:58;9.57;;;3.90;;
19384;SDS011;9828;54.122;17.974;2023-05-10T19:19:20;6.65;;;4.07;;
19384;SDS011;9828;54.122;17.974;2023-05-10T19:24:41;6.30;;;3.95;;
19384;SDS011;9828;54.122;17.974;2023-05-10T19:30:04;7.63;;;3.75;;
19384;SDS011;9828;54.122;17.974;2023-05-10T19:35:26;5.40;;;3.58;;
19384;SDS011;9828;54.122;17.974;2023-05-10T19:40:47;11.90;;;4.10;;
19384;SDS011;9828;54.122;17.974;2023-05-10T19:46:09;10.73;;;4.07;;
19384;SDS011;9828;54.122;17.974;2023-05-10T19:51:32;9.35;;;3.92;;
19384;SDS011;9828;54.122;17.974;2023-05-10T19:56:53;12.00;;;4.30;;
19384;SDS011;9828;54.122;17.974;2023-05-10T20:02:14;10.20;;;3.95;;
19384;SDS011;9828;54.122;17.974;2023-05-10T20:07:35;13.75;;;4.25;;
19384;SDS011;9828;54.122;17.974;2023-05-10T20:12:56;6.38;;;3.83;;
19384;SDS011;9828;54.122;17.974;2023-05-10T20:18:18;6.68;;;4.05;;
19384;SDS011;9828;54.122;17.974;2023-05-10T20:23:39;11.00;;;3.85;;
19384;SDS011;9828;54.122;17.974;2023-05-10T20:29:01;11.95;;;4.05;;
19384;SDS011;9828;54.122;17.974;2023-05-10T20:34:21;16.10;;;4.07;;
19384;SDS011;9828;54.122;17.974;2023-05-10T20:39:43;7.35;;;4.28;;
19384;SDS011;9828;54.122;17.974;2023-05-10T20:45:04;7.57;;;4.18;;
19384;SDS011;9828;54.122;17.974;2023-05-10T20:50:26;13.88;;;4.78;;
19384;SDS011;9828;54.122;17.974;2023-05-10T20:55:47;17.13;;;5.50;;
19384;SDS011;9828;54.122;17.974;2023-05-10T21:01:08;11.25;;;4.60;;
19384;SDS011;9828;54.122;17.974;2023-05-10T21:06:29;14.45;;;4.55;;
19384;SDS011;9828;54.122;17.974;2023-05-10T21:11:51;10.02;;;5.78;;
19384;SDS011;9828;54.122;17.974;2023-05-10T21:17:12;12.75;;;6.25;;
19384;SDS011;9828;54.122;17.974;2023-05-10T21:22:34;12.43;;;4.95;;
19384;SDS011;9828;54.122;17.974;2023-05-10T21:27:55;11.55;;;5.68;;
19384;SDS011;9828;54.122;17.974;2023-05-10T21:33:17;9.80;;;5.45;;
19384;SDS011;9828;54.122;17.974;2023-05-10T21:38:38;10.65;;;5.40;;
19384;SDS011;9828;54.122;17.974;2023-05-10T21:43:59;13.10;;;4.57;;
19384;SDS011;9828;54.122;17.974;2023-05-10T21:49:20;8.57;;;4.97;;
19384;SDS011;9828;54.122;17.974;2023-05-10T21:54:41;11.32;;;4.32;;
19384;SDS011;9828;54.122;17.974;2023-05-10T22:00:03;9.43;;;4.93;;
19384;SDS011;9828;54.122;17.974;2023-05-10T22:05:25;9.00;;;4.65;;
19384;SDS011;9828;54.122;17.974;2023-05-10T22:10:46;7.93;;;4.53;;
19384;SDS011;9828;54.122;17.974;2023-05-10T22:16:07;11.10;;;5.00;;
19384;SDS011;9828;54.122;17.974;2023-05-10T22:21:28;8.02;;;4.75;;
19384;SDS011;9828;54.122;17.974;2023-05-10T22:26:52;10.15;;;5.13;;
19384;SDS011;9828;54.122;17.974;2023-05-10T22:32:14;12.95;;;5.25;;
19384;SDS011;9828;54.122;17.974;2023-05-10T22:37:35;10.05;;;4.35;;
19384;SDS011;9828;54.122;17.974;2023-05-10T22:42:56;8.30;;;4.30;;
19384;SDS011;9828;54.122;17.974;2023-05-10T22:48:17;10.50;;;4.40;;
19384;SDS011;9828;54.122;17.974;2023-05-10T22:53:40;6.55;;;4.10;;
19384;SDS011;9828;54.122;17.974;2023-05-10T22:59:01;9.52;;;4.03;;
19384;SDS011;9828;54.122;17.974;2023-05-10T23:04:22;7.55;;;4.38;;
19384;SDS011;9828;54.122;17.974;2023-05-10T23:09:43;9.02;;;4.13;;
19384;SDS011;9828;54.122;17.974;2023-05-10T23:15:05;6.93;;;4.00;;
19384;SDS011;9828;54.122;17.974;2023-05-10T23:20:26;7.22;;;4.20;;
19384;SDS011;9828;54.122;17.974;2023-05-10T23:25:48;5.63;;;3.83;;
19384;SDS011;9828;54.122;17.974;2023-05-10T23:31:09;8.40;;;4.10;;
19384;SDS011;9828;54.122;17.974;2023-05-10T23:36:30;6.82;;;3.92;;
19384;SDS011;9828;54.122;17.974;2023-05-10T23:41:52;7.45;;;3.95;;
19384;SDS011;9828;54.122;17.974;2023-05-10T23:47:14;5.97;;;3.30;;
19384;SDS011;9828;54.122;17.974;2023-05-10T23:52:34;10.32;;;3.95;;
19384;SDS011;9828;54.122;17.974;2023-05-10T23:57:56;8.85;;;3.92;;
